| time (UTC) | temp C | wind direction | speed KPH | gust KPH | rain 1hr cm | rain 24hr cm | rain mn cm | humidity % | barometer mb |
| 20260505190038 | 12 | 256 | 17.7 | 33.8 | 0.00 | 0.00 | 0.00 | 33 | 1007.3 |
| 20260505184536 | 12 | 230 | 12.9 | 33.8 | 0.00 | 0.00 | 0.00 | 33 | 1007.1 |
| 20260505183037 | 11 | 249 | 16.1 | 37.0 | 0.00 | 0.00 | 0.00 | 34 | 1007.1 |
| 20260505181537 | 11 | 222 | 22.5 | 33.8 | 0.00 | 0.00 | 0.00 | 35 | 1006.9 |
| 20260505180056 | 11 | 212 | 19.3 | 40.2 | 0.00 | 0.00 | 0.00 | 36 | 1007.0 |
| 20260505174550 | 11 | 243 | 14.5 | 37.0 | 0.00 | 0.00 | 0.00 | 35 | 1006.7 |
| 20260505173039 | 10 | 299 | 19.3 | 32.2 | 0.00 | 0.00 | 0.00 | 34 | 1006.7 |
| 20260505171533 | 11 | 266 | 20.9 | 30.6 | 0.00 | 0.00 | 0.00 | 34 | 1006.7 |
| 20260505170033 | 11 | 235 | 22.5 | 41.8 | 0.00 | 0.00 | 0.00 | 31 | 1006.8 |
| 20260505164531 | 10 | 284 | 17.7 | 40.2 | 0.00 | 0.00 | 0.00 | 34 | 1006.6 |
| 20260505163031 | 11 | 277 | 24.1 | 37.0 | 0.00 | 0.00 | 0.00 | 34 | 1006.4 |
| 20260505161535 | 11 | 359 | 16.1 | 37.0 | 0.00 | 0.00 | 0.00 | 34 | 1006.2 |
| 20260505153030 | 10 | 262 | 12.9 | 29.0 | 0.00 | 0.00 | 0.00 | 40 | 1006.3 |
| 20260505151531 | 10 | 279 | 22.5 | 41.8 | 0.00 | 0.00 | 0.00 | 38 | 1006.4 |
| 20260505114542 | 7 | 199 | 4.8 | 9.7 | 0.00 | 0.00 | 0.00 | 58 | 1006.5 |
| 20260505113039 | 7 | 257 | 8.0 | 12.9 | 0.00 | 0.00 | 0.00 | 54 | 1006.0 |
| 20260505111538 | 7 | 245 | 4.8 | 16.1 | 0.00 | 0.00 | 0.00 | 55 | 1005.6 |
| 20260505101535 | 7 | 278 | 4.8 | 12.9 | 0.00 | 0.00 | 0.00 | 60 | 1004.9 |
| 20260505100030 | 7 | 285 | 6.4 | 9.7 | 0.00 | 0.00 | 0.00 | 60 | 1004.3 |
| 20260505094526 | 7 | 299 | 9.7 | 19.3 | 0.00 | 0.00 | 0.00 | 58 | 1004.4 |
| 20260505093034 | 8 | 328 | 11.3 | 22.5 | 0.00 | 0.00 | 0.00 | 57 | 1003.6 |
| 20260505091525 | 8 | 305 | 11.3 | 20.9 | 0.00 | 0.00 | 0.00 | 56 | 1003.6 |
| 20260505090023 | 8 | 287 | 16.1 | 24.1 | 0.00 | 0.00 | 0.00 | 54 | 1004.0 |
| 20260505084522 | 8 | 279 | 11.3 | 17.7 | 0.00 | 0.00 | 0.00 | 55 | 1003.7 |
| 20260505083023 | 8 | 305 | 12.9 | 17.7 | 0.00 | 0.00 | 0.00 | 53 | 1003.2 |
| 20260505081515 | 8 | 315 | 12.9 | 19.3 | 0.00 | 0.00 | 0.00 | 54 | 1002.7 |
| 20260505080011 | 8 | 308 | 17.7 | 24.1 | 0.00 | 0.00 | 0.00 | 53 | 1002.4 |
| 20260505074508 | 9 | 310 | 17.7 | 35.4 | 0.00 | 0.00 | 0.00 | 52 | 1002.1 |
| 20260505073005 | 10 | 305 | 24.1 | 38.6 | 0.00 | 0.00 | 0.00 | 52 | 1001.8 |
| 20260505071501 | 10 | 327 | 20.9 | 32.2 | 0.00 | 0.00 | 0.00 | 54 | 1001.3 |
| 20260505070059 | 11 | 299 | 11.3 | 17.7 | 0.00 | 0.00 | 0.00 | 52 | 1001.2 |
| 20260505064555 | 11 | 267 | 8.0 | 16.1 | 0.00 | 0.00 | 0.00 | 50 | 1000.9 |
| 20260505063119 | 11 | 256 | 8.0 | 12.9 | 0.00 | 0.00 | 0.00 | 50 | 1000.9 |
| 20260505061615 | 11 | 280 | 6.4 | 16.1 | 0.00 | 0.00 | 0.00 | 49 | 1000.6 |
| 20260505060048 | 12 | 359 | 12.9 | 20.9 | 0.00 | 0.00 | 0.00 | 47 | 1000.5 |
| 20260505054544 | 12 | 268 | 14.5 | 30.6 | 0.00 | 0.00 | 0.00 | 46 | 1000.3 |
| 20260505053043 | 12 | 359 | 11.3 | 22.5 | 0.00 | 0.00 | 0.00 | 45 | 1000.0 |
| 20260505051556 | 13 | 257 | 12.9 | 24.1 | 0.00 | 0.00 | 0.00 | 43 | 999.9 |
| 20260505041532 | 15 | 261 | 14.5 | 25.7 | 0.00 | 0.00 | 0.00 | 41 | 999.4 |
| 20260505040032 | 15 | 278 | 14.5 | 29.0 | 0.00 | 0.00 | 0.00 | 38 | 999.3 |
| 20260505034531 | 15 | 359 | 17.7 | 30.6 | 0.00 | 0.00 | 0.00 | 38 | 999.2 |
| 20260505033030 | 16 | 267 | 19.3 | 30.6 | 0.00 | 0.00 | 0.00 | 37 | 999.0 |
| 20260505031529 | 16 | 249 | 17.7 | 32.2 | 0.00 | 0.00 | 0.00 | 36 | 999.0 |
| 20260505030030 | 16 | 276 | 24.1 | 38.6 | 0.00 | 0.00 | 0.00 | 36 | 998.7 |
| 20260505024527 | 17 | 268 | 22.5 | 38.6 | 0.00 | 0.00 | 0.00 | 36 | 998.2 |
| 20260505023027 | 17 | 299 | 25.7 | 41.8 | 0.00 | 0.00 | 0.00 | 36 | 998.0 |
| 20260505021527 | 18 | 256 | 24.1 | 40.2 | 0.00 | 0.00 | 0.00 | 37 | 998.1 |
| 20260505020025 | 19 | 251 | 25.7 | 43.5 | 0.00 | 0.00 | 0.00 | 36 | 997.8 |
| 20260505014525 | 20 | 243 | 20.9 | 32.2 | 0.00 | 0.00 | 0.00 | 35 | 997.4 |
| 20260505013025 | 20 | 256 | 27.4 | 43.5 | 0.00 | 0.00 | 0.00 | 35 | 996.9 |
| 20260505011525 | 21 | 260 | 25.7 | 45.1 | 0.00 | 0.00 | 0.00 | 36 | 996.4 |
| 20260505010024 | 21 | 240 | 12.9 | 24.1 | 0.00 | 0.00 | 0.00 | 42 | 995.4 |
| 20260505004524 | 22 | 228 | 17.7 | 30.6 | 0.00 | 0.00 | 0.00 | 44 | 994.7 |
| 20260505003024 | 22 | 228 | 16.1 | 29.0 | 0.00 | 0.00 | 0.00 | 43 | 994.4 |
| 20260505001522 | 22 | 211 | 17.7 | 27.4 | 0.00 | 0.00 | 0.00 | 41 | 994.1 |
| 20260505000021 | 23 | 212 | 12.9 | 17.7 | 0.00 | 0.00 | 0.00 | 41 | 993.9 |
| 20260504234523 | 23 | 213 | 9.7 | 17.7 | 0.00 | 0.00 | 0.00 | 41 | 994.0 |
| 20260504233019 | 23 | 359 | 12.9 | 22.5 | 0.00 | 0.00 | 0.00 | 40 | 994.1 |
| 20260504231518 | 23 | 257 | 8.0 | 16.1 | 0.00 | 0.00 | 0.00 | 42 | 994.2 |
| 20260504230016 | 23 | 200 | 8.0 | 20.9 | 0.00 | 0.00 | 0.00 | 42 | 994.3 |
| 20260504224514 | 23 | 173 | 14.5 | 35.4 | 0.00 | 0.00 | 0.00 | 44 | 994.9 |
| 20260504223013 | 25 | 201 | 20.9 | 35.4 | 0.00 | 0.00 | 0.00 | 35 | 994.8 |
| 20260504221513 | 25 | 187 | 24.1 | 33.8 | 0.00 | 0.00 | 0.00 | 32 | 994.5 |
| 20260504220012 | 25 | 201 | 25.7 | 40.2 | 0.00 | 0.00 | 0.00 | 32 | 994.7 |
| 20260504214510 | 25 | 258 | 22.5 | 41.8 | 0.00 | 0.00 | 0.00 | 32 | 994.9 |
| 20260504213013 | 26 | 203 | 27.4 | 40.2 | 0.00 | 0.00 | 0.00 | 31 | 995.0 |
| 20260504211507 | 25 | 212 | 24.1 | 46.7 | 0.00 | 0.00 | 0.00 | 31 | 995.0 |
| 20260504210005 | 25 | 229 | 30.6 | 49.9 | 0.00 | 0.00 | 0.00 | 30 | 995.4 |
| 20260504204503 | 26 | 204 | 22.5 | 45.1 | 0.00 | 0.00 | 0.00 | 31 | 995.6 |
| 20260504203002 | 25 | 216 | 27.4 | 41.8 | 0.00 | 0.00 | 0.00 | 30 | 995.7 |
| 20260504201600 | 25 | 359 | 24.1 | 41.8 | 0.00 | 0.00 | 0.00 | 33 | 995.7 |
| 20260504201500 | 25 | 210 | 22.5 | 41.8 | 0.00 | 0.00 | 0.00 | 32 | 995.8 |
| 20260504200059 | 25 | 193 | 30.6 | 53.1 | 0.00 | 0.00 | 0.00 | 31 | 995.9 |
| 20260504194602 | 25 | 210 | 27.4 | 43.5 | 0.00 | 0.00 | 0.00 | 30 | 996.2 |
| 20260504193057 | 25 | 183 | 25.7 | 38.6 | 0.00 | 0.00 | 0.00 | 29 | 996.4 |
| 20260504191554 | 25 | 199 | 27.4 | 40.2 | 0.00 | 0.00 | 0.00 | 29 | 996.5 |